sensor_id;sensor_type;location;lat;lon;timestamp;pressure;altitude;pressure_sealevel;temperature;humidity
53916;BME280;39827;49.652;18.770;2023-02-28T00:02:19;97484.72;;;-0.12;74.81
53916;BME280;39827;49.652;18.770;2023-02-28T00:04:45;97489.72;;;0.06;76.10
53916;BME280;39827;49.652;18.770;2023-02-28T00:07:18;97474.47;;;-0.06;76.08
53916;BME280;39827;49.652;18.770;2023-02-28T00:09:43;97487.94;;;-0.02;75.10
53916;BME280;39827;49.652;18.770;2023-02-28T00:12:08;97486.50;;;0.04;75.43
53916;BME280;39827;49.652;18.770;2023-02-28T00:14:36;97480.00;;;-0.17;76.13
53916;BME280;39827;49.652;18.770;2023-02-28T00:17:01;97491.69;;;-0.13;75.17
53916;BME280;39827;49.652;18.770;2023-02-28T00:19:27;97494.31;;;-0.13;74.90
53916;BME280;39827;49.652;18.770;2023-02-28T00:21:52;97492.03;;;-0.24;74.62
53916;BME280;39827;49.652;18.770;2023-02-28T00:24:18;97489.41;;;-0.16;75.37
53916;BME280;39827;49.652;18.770;2023-02-28T00:26:43;97490.88;;;0.03;75.80
53916;BME280;39827;49.652;18.770;2023-02-28T00:29:09;97485.97;;;0.17;75.51
53916;BME280;39827;49.652;18.770;2023-02-28T00:31:35;97479.13;;;0.16;73.43
53916;BME280;39827;49.652;18.770;2023-02-28T00:34:00;97484.50;;;0.14;71.49
53916;BME280;39827;49.652;18.770;2023-02-28T00:36:25;97479.66;;;0.03;72.22
53916;BME280;39827;49.652;18.770;2023-02-28T00:38:51;97468.59;;;-0.08;74.13
53916;BME280;39827;49.652;18.770;2023-02-28T00:41:17;97470.56;;;-0.10;72.69
53916;BME280;39827;49.652;18.770;2023-02-28T00:43:42;97479.50;;;-0.21;72.49
53916;BME280;39827;49.652;18.770;2023-02-28T00:46:08;97479.81;;;0.01;72.12
53916;BME280;39827;49.652;18.770;2023-02-28T00:48:33;97473.81;;;-0.08;71.56
53916;BME280;39827;49.652;18.770;2023-02-28T00:50:59;97479.84;;;-0.07;69.29
53916;BME280;39827;49.652;18.770;2023-02-28T00:53:25;97468.28;;;-0.05;70.40
53916;BME280;39827;49.652;18.770;2023-02-28T00:55:50;97469.75;;;-0.19;71.59
53916;BME280;39827;49.652;18.770;2023-02-28T00:58:15;97475.44;;;-0.32;73.63
53916;BME280;39827;49.652;18.770;2023-02-28T01:00:41;97469.41;;;-0.24;74.42
53916;BME280;39827;49.652;18.770;2023-02-28T01:03:06;97470.72;;;-0.36;73.38
53916;BME280;39827;49.652;18.770;2023-02-28T01:05:32;97472.00;;;-0.49;73.46
53916;BME280;39827;49.652;18.770;2023-02-28T01:07:57;97480.81;;;-0.42;73.91
53916;BME280;39827;49.652;18.770;2023-02-28T01:10:23;97461.28;;;-0.62;73.25
53916;BME280;39827;49.652;18.770;2023-02-28T01:12:48;97473.31;;;-0.70;71.02
53916;BME280;39827;49.652;18.770;2023-02-28T01:15:13;97476.06;;;-0.71;72.67
53916;BME280;39827;49.652;18.770;2023-02-28T01:17:39;97477.22;;;-0.74;72.29
53916;BME280;39827;49.652;18.770;2023-02-28T01:20:05;97458.16;;;-0.83;72.80
53916;BME280;39827;49.652;18.770;2023-02-28T01:22:30;97466.78;;;-0.82;71.62
53916;BME280;39827;49.652;18.770;2023-02-28T01:24:55;97460.75;;;-0.91;71.73
53916;BME280;39827;49.652;18.770;2023-02-28T01:27:21;97464.81;;;-0.88;71.00
53916;BME280;39827;49.652;18.770;2023-02-28T01:29:46;97463.66;;;-1.02;70.77
53916;BME280;39827;49.652;18.770;2023-02-28T01:32:12;97467.88;;;-1.01;69.66
53916;BME280;39827;49.652;18.770;2023-02-28T01:34:37;97471.22;;;-1.26;70.44
53916;BME280;39827;49.652;18.770;2023-02-28T01:37:03;97459.81;;;-1.33;71.12
53916;BME280;39827;49.652;18.770;2023-02-28T01:39:28;97466.34;;;-1.29;69.83
53916;BME280;39827;49.652;18.770;2023-02-28T01:41:54;97461.56;;;-1.42;71.99
53916;BME280;39827;49.652;18.770;2023-02-28T01:47:19;97459.59;;;-1.48;73.80
53916;BME280;39827;49.652;18.770;2023-02-28T01:49:45;97451.44;;;-1.62;71.49
53916;BME280;39827;49.652;18.770;2023-02-28T01:52:11;97452.50;;;-1.73;73.27
53916;BME280;39827;49.652;18.770;2023-02-28T01:54:45;97448.28;;;-1.74;73.18
53916;BME280;39827;49.652;18.770;2023-02-28T01:57:17;97445.41;;;-1.97;75.20
53916;BME280;39827;49.652;18.770;2023-02-28T02:00:12;97446.28;;;-2.15;75.60
53916;BME280;39827;49.652;18.770;2023-02-28T02:02:38;97436.47;;;-2.21;75.44
53916;BME280;39827;49.652;18.770;2023-02-28T02:05:08;97431.00;;;-2.18;74.52
53916;BME280;39827;49.652;18.770;2023-02-28T02:07:40;97442.41;;;-2.11;74.74
53916;BME280;39827;49.652;18.770;2023-02-28T02:15:49;97431.66;;;-2.60;78.27
53916;BME280;39827;49.652;18.770;2023-02-28T02:18:27;97433.88;;;-2.66;79.03
53916;BME280;39827;49.652;18.770;2023-02-28T02:35:31;97432.56;;;-2.88;80.22
53916;BME280;39827;49.652;18.770;2023-02-28T02:40:49;97435.94;;;-2.51;78.84
53916;BME280;39827;49.652;18.770;2023-02-28T02:43:19;97444.19;;;-2.74;79.91
53916;BME280;39827;49.652;18.770;2023-02-28T02:45:53;97445.91;;;-2.83;79.42
53916;BME280;39827;49.652;18.770;2023-02-28T02:48:21;97438.50;;;-2.59;78.77
53916;BME280;39827;49.652;18.770;2023-02-28T02:50:53;97453.75;;;-2.75;79.89
53916;BME280;39827;49.652;18.770;2023-02-28T02:53:23;97452.09;;;-2.76;79.57
53916;BME280;39827;49.652;18.770;2023-02-28T02:55:52;97450.00;;;-3.08;80.99
53916;BME280;39827;49.652;18.770;2023-02-28T02:58:23;97441.34;;;-3.17;80.82
53916;BME280;39827;49.652;18.770;2023-02-28T03:00:55;97446.25;;;-2.96;80.05
53916;BME280;39827;49.652;18.770;2023-02-28T03:03:23;97445.88;;;-3.01;78.25
53916;BME280;39827;49.652;18.770;2023-02-28T03:05:58;97447.28;;;-3.07;78.50
53916;BME280;39827;49.652;18.770;2023-02-28T03:08:24;97443.22;;;-3.09;79.58
53916;BME280;39827;49.652;18.770;2023-02-28T03:10:52;97456.19;;;-2.91;78.85
53916;BME280;39827;49.652;18.770;2023-02-28T03:26:50;97453.09;;;-3.23;80.44
53916;BME280;39827;49.652;18.770;2023-02-28T03:29:20;97452.88;;;-3.30;80.03
53916;BME280;39827;49.652;18.770;2023-02-28T03:31:52;97461.97;;;-3.54;81.29
53916;BME280;39827;49.652;18.770;2023-02-28T03:34:24;97460.19;;;-3.53;80.76
53916;BME280;39827;49.652;18.770;2023-02-28T03:36:55;97467.81;;;-3.23;80.05
53916;BME280;39827;49.652;18.770;2023-02-28T03:39:35;97456.56;;;-3.32;80.30
53916;BME280;39827;49.652;18.770;2023-02-28T03:42:07;97461.16;;;-3.26;80.97
53916;BME280;39827;49.652;18.770;2023-02-28T03:44:58;97466.25;;;-3.34;80.51
53916;BME280;39827;49.652;18.770;2023-02-28T03:47:32;97462.25;;;-3.29;79.84
53916;BME280;39827;49.652;18.770;2023-02-28T03:50:08;97469.22;;;-3.57;80.35
53916;BME280;39827;49.652;18.770;2023-02-28T03:52:41;97459.97;;;-3.32;80.40
53916;BME280;39827;49.652;18.770;2023-02-28T03:55:12;97470.00;;;-3.19;79.78
53916;BME280;39827;49.652;18.770;2023-02-28T03:57:51;97475.16;;;-3.19;79.68
53916;BME280;39827;49.652;18.770;2023-02-28T04:00:26;97465.41;;;-3.63;81.21
53916;BME280;39827;49.652;18.770;2023-02-28T04:02:54;97467.63;;;-3.68;81.52
53916;BME280;39827;49.652;18.770;2023-02-28T04:05:21;97473.03;;;-3.61;80.97
53916;BME280;39827;49.652;18.770;2023-02-28T04:07:47;97475.63;;;-3.61;80.14
53916;BME280;39827;49.652;18.770;2023-02-28T04:10:15;97483.41;;;-3.61;80.72
53916;BME280;39827;49.652;18.770;2023-02-28T04:12:41;97470.56;;;-4.01;81.96
53916;BME280;39827;49.652;18.770;2023-02-28T04:15:07;97470.94;;;-3.76;80.60
53916;BME280;39827;49.652;18.770;2023-02-28T04:17:32;97472.28;;;-3.72;80.02
53916;BME280;39827;49.652;18.770;2023-02-28T04:19:58;97486.47;;;-3.48;81.19
53916;BME280;39827;49.652;18.770;2023-02-28T04:22:23;97481.75;;;-3.53;79.95
53916;BME280;39827;49.652;18.770;2023-02-28T04:24:52;97472.94;;;-3.70;80.35
53916;BME280;39827;49.652;18.770;2023-02-28T04:27:20;97480.69;;;-3.70;80.20
53916;BME280;39827;49.652;18.770;2023-02-28T04:29:45;97464.78;;;-3.75;81.14
53916;BME280;39827;49.652;18.770;2023-02-28T04:32:11;97480.47;;;-3.86;81.30
53916;BME280;39827;49.652;18.770;2023-02-28T04:34:36;97481.38;;;-3.68;80.52
53916;BME280;39827;49.652;18.770;2023-02-28T04:37:02;97475.84;;;-3.45;81.23
53916;BME280;39827;49.652;18.770;2023-02-28T04:39:28;97472.75;;;-3.58;80.30
53916;BME280;39827;49.652;18.770;2023-02-28T04:41:55;97481.75;;;-3.53;80.02
53916;BME280;39827;49.652;18.770;2023-02-28T04:44:21;97480.28;;;-3.65;81.25
53916;BME280;39827;49.652;18.770;2023-02-28T04:46:48;97474.50;;;-3.49;79.83
53916;BME280;39827;49.652;18.770;2023-02-28T04:49:13;97468.41;;;-3.58;80.31
53916;BME280;39827;49.652;18.770;2023-02-28T04:51:39;97478.91;;;-3.59;80.34
53916;BME280;39827;49.652;18.770;2023-02-28T04:54:05;97474.88;;;-3.72;80.27
53916;BME280;39827;49.652;18.770;2023-02-28T04:56:31;97467.63;;;-3.68;79.81
53916;BME280;39827;49.652;18.770;2023-02-28T04:58:57;97480.31;;;-3.75;80.08
53916;BME280;39827;49.652;18.770;2023-02-28T05:01:28;97474.41;;;-3.67;80.64
53916;BME280;39827;49.652;18.770;2023-02-28T05:03:56;97478.97;;;-3.79;81.68
53916;BME280;39827;49.652;18.770;2023-02-28T05:06:24;97480.28;;;-3.65;81.32
53916;BME280;39827;49.652;18.770;2023-02-28T05:08:50;97488.72;;;-3.63;81.19
53916;BME280;39827;49.652;18.770;2023-02-28T05:11:29;97480.81;;;-3.61;80.35
53916;BME280;39827;49.652;18.770;2023-02-28T05:13:59;97486.53;;;-3.58;81.17
53916;BME280;39827;49.652;18.770;2023-02-28T05:16:24;97483.22;;;-3.50;82.39
53916;BME280;39827;49.652;18.770;2023-02-28T05:18:49;97481.63;;;-3.61;82.33
53916;BME280;39827;49.652;18.770;2023-02-28T05:21:29;97479.38;;;-3.18;82.37
53916;BME280;39827;49.652;18.770;2023-02-28T05:23:56;97484.38;;;-3.34;81.64
53916;BME280;39827;49.652;18.770;2023-02-28T05:26:22;97480.97;;;-3.35;81.46
53916;BME280;39827;49.652;18.770;2023-02-28T05:28:48;97484.13;;;-3.41;81.30
53916;BME280;39827;49.652;18.770;2023-02-28T05:31:14;97494.25;;;-3.48;81.62
53916;BME280;39827;49.652;18.770;2023-02-28T05:33:39;97491.47;;;-3.36;80.48
53916;BME280;39827;49.652;18.770;2023-02-28T05:36:05;97497.72;;;-3.29;79.73
53916;BME280;39827;49.652;18.770;2023-02-28T05:38:31;97499.13;;;-3.17;78.27
53916;BME280;39827;49.652;18.770;2023-02-28T05:40:56;97515.47;;;-3.06;79.18
53916;BME280;39827;49.652;18.770;2023-02-28T05:43:22;97506.91;;;-2.89;79.11
53916;BME280;39827;49.652;18.770;2023-02-28T05:45:48;97507.25;;;-3.02;79.38
53916;BME280;39827;49.652;18.770;2023-02-28T05:48:13;97512.31;;;-2.82;79.24
53916;BME280;39827;49.652;18.770;2023-02-28T05:50:38;97524.53;;;-2.74;79.85
53916;BME280;39827;49.652;18.770;2023-02-28T05:53:04;97512.16;;;-2.98;79.20
53916;BME280;39827;49.652;18.770;2023-02-28T05:55:29;97526.81;;;-2.89;79.54
53916;BME280;39827;49.652;18.770;2023-02-28T05:57:55;97523.94;;;-2.86;77.96
53916;BME280;39827;49.652;18.770;2023-02-28T06:00:21;97532.31;;;-2.74;78.56
53916;BME280;39827;49.652;18.770;2023-02-28T06:02:46;97527.31;;;-2.57;78.63
53916;BME280;39827;49.652;18.770;2023-02-28T06:05:17;97521.91;;;-2.46;78.35
53916;BME280;39827;49.652;18.770;2023-02-28T06:07:43;97532.59;;;-2.31;77.13
53916;BME280;39827;49.652;18.770;2023-02-28T06:10:12;97532.03;;;-2.34;76.91
53916;BME280;39827;49.652;18.770;2023-02-28T06:12:38;97536.41;;;-2.17;77.86
53916;BME280;39827;49.652;18.770;2023-02-28T06:15:04;97538.56;;;-1.94;76.25
53916;BME280;39827;49.652;18.770;2023-02-28T06:17:30;97535.06;;;-2.03;77.02
53916;BME280;39827;49.652;18.770;2023-02-28T06:19:55;97543.53;;;-1.74;75.72
53916;BME280;39827;49.652;18.770;2023-02-28T06:22:21;97541.22;;;-1.77;74.26
53916;BME280;39827;49.652;18.770;2023-02-28T06:24:46;97548.09;;;-1.94;75.11
53916;BME280;39827;49.652;18.770;2023-02-28T06:27:12;97529.31;;;-1.88;74.75
53916;BME280;39827;49.652;18.770;2023-02-28T06:29:37;97555.31;;;-1.62;74.02
53916;BME280;39827;49.652;18.770;2023-02-28T06:32:05;97552.75;;;-1.53;72.98
53916;BME280;39827;49.652;18.770;2023-02-28T06:34:30;97550.72;;;-1.41;73.67
53916;BME280;39827;49.652;18.770;2023-02-28T06:36:56;97545.72;;;-1.35;73.74
53916;BME280;39827;49.652;18.770;2023-02-28T06:39:21;97550.59;;;-1.32;73.66
53916;BME280;39827;49.652;18.770;2023-02-28T06:41:47;97551.88;;;-1.01;72.76
53916;BME280;39827;49.652;18.770;2023-02-28T06:44:16;97554.75;;;-0.69;70.65
53916;BME280;39827;49.652;18.770;2023-02-28T06:46:43;97542.91;;;-0.63;69.94
53916;BME280;39827;49.652;18.770;2023-02-28T06:49:09;97542.78;;;-0.45;69.34
53916;BME280;39827;49.652;18.770;2023-02-28T06:51:37;97559.22;;;-0.28;69.31
53916;BME280;39827;49.652;18.770;2023-02-28T06:54:04;97547.50;;;-0.32;69.15
53916;BME280;39827;49.652;18.770;2023-02-28T06:56:30;97550.91;;;0.02;67.26
53916;BME280;39827;49.652;18.770;2023-02-28T06:58:55;97560.50;;;0.43;66.58
53916;BME280;39827;49.652;18.770;2023-02-28T07:01:21;97561.16;;;0.45;64.58
53916;BME280;39827;49.652;18.770;2023-02-28T07:03:48;97558.03;;;0.49;63.34
53916;BME280;39827;49.652;18.770;2023-02-28T07:06:26;97556.34;;;0.82;62.29
53916;BME280;39827;49.652;18.770;2023-02-28T07:08:52;97554.34;;;0.92;60.62
53916;BME280;39827;49.652;18.770;2023-02-28T07:11:20;97558.84;;;1.07;60.92
53916;BME280;39827;49.652;18.770;2023-02-28T07:13:48;97565.72;;;1.63;56.92
53916;BME280;39827;49.652;18.770;2023-02-28T07:16:13;97562.50;;;3.80;50.28
53916;BME280;39827;49.652;18.770;2023-02-28T07:18:39;97571.34;;;5.22;46.27
53916;BME280;39827;49.652;18.770;2023-02-28T07:21:06;97562.09;;;6.43;44.78
53916;BME280;39827;49.652;18.770;2023-02-28T07:23:32;97572.97;;;7.39;42.52
53916;BME280;39827;49.652;18.770;2023-02-28T07:25:57;97552.34;;;8.01;39.91
53916;BME280;39827;49.652;18.770;2023-02-28T07:28:23;97573.16;;;8.67;37.70
53916;BME280;39827;49.652;18.770;2023-02-28T07:30:48;97573.84;;;8.30;37.89
53916;BME280;39827;49.652;18.770;2023-02-28T07:33:14;97579.84;;;8.69;37.80
53916;BME280;39827;49.652;18.770;2023-02-28T07:35:40;97586.91;;;9.13;37.42
53916;BME280;39827;49.652;18.770;2023-02-28T07:38:06;97585.41;;;9.36;36.33
53916;BME280;39827;49.652;18.770;2023-02-28T07:40:33;97583.50;;;9.74;34.87
53916;BME280;39827;49.652;18.770;2023-02-28T07:42:59;97591.19;;;9.45;34.00
53916;BME280;39827;49.652;18.770;2023-02-28T07:45:25;97576.69;;;9.97;33.48
53916;BME280;39827;49.652;18.770;2023-02-28T07:47:51;97577.63;;;10.02;33.80
53916;BME280;39827;49.652;18.770;2023-02-28T07:50:16;97584.34;;;10.41;32.27
53916;BME280;39827;49.652;18.770;2023-02-28T07:52:42;97580.44;;;10.43;32.50
53916;BME280;39827;49.652;18.770;2023-02-28T07:55:08;97566.41;;;9.88;32.84
53916;BME280;39827;49.652;18.770;2023-02-28T07:57:34;97586.91;;;9.13;33.76
53916;BME280;39827;49.652;18.770;2023-02-28T08:00:00;97579.28;;;10.39;32.28
53916;BME280;39827;49.652;18.770;2023-02-28T08:02:25;97577.13;;;10.96;31.63
53916;BME280;39827;49.652;18.770;2023-02-28T08:04:51;97588.50;;;10.25;31.69
53916;BME280;39827;49.652;18.770;2023-02-28T08:07:17;97575.19;;;10.91;31.88
53916;BME280;39827;49.652;18.770;2023-02-28T08:09:44;97576.78;;;11.04;31.32
53916;BME280;39827;49.652;18.770;2023-02-28T08:12:10;97584.72;;;11.45;31.34
53916;BME280;39827;49.652;18.770;2023-02-28T08:14:36;97573.84;;;11.88;30.81
53916;BME280;39827;49.652;18.770;2023-02-28T08:17:02;97562.97;;;12.93;28.60
53916;BME280;39827;49.652;18.770;2023-02-28T08:19:27;97575.09;;;12.32;29.89
53916;BME280;39827;49.652;18.770;2023-02-28T08:21:54;97585.38;;;12.11;29.70
53916;BME280;39827;49.652;18.770;2023-02-28T08:24:19;97572.06;;;11.47;30.00
53916;BME280;39827;49.652;18.770;2023-02-28T08:26:44;97586.88;;;12.36;30.27
53916;BME280;39827;49.652;18.770;2023-02-28T08:29:10;97586.94;;;12.24;29.09
53916;BME280;39827;49.652;18.770;2023-02-28T08:31:35;97590.69;;;13.19;28.29
53916;BME280;39827;49.652;18.770;2023-02-28T08:34:11;97591.69;;;13.13;27.54
53916;BME280;39827;49.652;18.770;2023-02-28T08:36:37;97578.00;;;11.84;28.11
53916;BME280;39827;49.652;18.770;2023-02-28T08:39:04;97590.03;;;12.89;27.03
53916;BME280;39827;49.652;18.770;2023-02-28T08:41:30;97601.69;;;11.44;29.91
53916;BME280;39827;49.652;18.770;2023-02-28T08:43:56;97589.66;;;11.01;29.06
53916;BME280;39827;49.652;18.770;2023-02-28T08:46:23;97593.31;;;11.24;28.84
53916;BME280;39827;49.652;18.770;2023-02-28T08:48:53;97587.97;;;10.94;29.42
53916;BME280;39827;49.652;18.770;2023-02-28T08:51:20;97577.72;;;10.86;30.75
53916;BME280;39827;49.652;18.770;2023-02-28T08:53:56;97585.41;;;11.82;29.10
53916;BME280;39827;49.652;18.770;2023-02-28T08:56:23;97596.59;;;12.47;27.61
53916;BME280;39827;49.652;18.770;2023-02-28T08:58:49;97590.88;;;12.38;28.51
53916;BME280;39827;49.652;18.770;2023-02-28T09:01:18;97589.09;;;12.79;28.45
53916;BME280;39827;49.652;18.770;2023-02-28T09:03:44;97584.59;;;12.28;27.78
53916;BME280;39827;49.652;18.770;2023-02-28T09:06:11;97589.09;;;12.10;26.99
53916;BME280;39827;49.652;18.770;2023-02-28T09:08:38;97585.09;;;12.98;26.55
53916;BME280;39827;49.652;18.770;2023-02-28T09:11:03;97582.31;;;13.33;26.83
53916;BME280;39827;49.652;18.770;2023-02-28T09:13:29;97583.50;;;13.64;26.19
53916;BME280;39827;49.652;18.770;2023-02-28T09:15:58;97587.97;;;13.14;25.55
53916;BME280;39827;49.652;18.770;2023-02-28T09:18:23;97580.69;;;13.76;25.64
53916;BME280;39827;49.652;18.770;2023-02-28T09:20:49;97591.44;;;13.59;27.33
53916;BME280;39827;49.652;18.770;2023-02-28T09:23:15;97588.66;;;13.26;27.07
53916;BME280;39827;49.652;18.770;2023-02-28T09:25:52;97588.69;;;15.18;25.82
53916;BME280;39827;49.652;18.770;2023-02-28T09:28:18;97587.56;;;13.72;25.52
53916;BME280;39827;49.652;18.770;2023-02-28T09:30:46;97584.25;;;14.85;24.91
53916;BME280;39827;49.652;18.770;2023-02-28T09:33:12;97577.63;;;14.17;26.00
53916;BME280;39827;49.652;18.770;2023-02-28T09:35:38;97584.19;;;15.23;24.79
53916;BME280;39827;49.652;18.770;2023-02-28T09:38:04;97570.75;;;15.03;25.32
53916;BME280;39827;49.652;18.770;2023-02-28T09:40:30;97584.56;;;15.58;24.92
53916;BME280;39827;49.652;18.770;2023-02-28T09:42:57;97581.94;;;15.74;24.62
53916;BME280;39827;49.652;18.770;2023-02-28T09:45:29;97588.84;;;14.95;25.31
53916;BME280;39827;49.652;18.770;2023-02-28T09:48:02;97600.19;;;16.39;25.99
53916;BME280;39827;49.652;18.770;2023-02-28T09:50:40;97601.25;;;16.02;25.13
53916;BME280;39827;49.652;18.770;2023-02-28T09:53:19;97593.75;;;16.66;24.79
53916;BME280;39827;49.652;18.770;2023-02-28T09:55:50;97587.66;;;17.42;22.50
53916;BME280;39827;49.652;18.770;2023-02-28T09:58:26;97593.59;;;17.34;24.19
53916;BME280;39827;49.652;18.770;2023-02-28T10:06:19;97597.31;;;17.38;23.46
53916;BME280;39827;49.652;18.770;2023-02-28T10:09:06;97592.13;;;16.91;25.22
53916;BME280;39827;49.652;18.770;2023-02-28T10:11:37;97591.38;;;16.13;23.47
53916;BME280;39827;49.652;18.770;2023-02-28T10:14:16;97590.53;;;16.64;23.19
53916;BME280;39827;49.652;18.770;2023-02-28T10:16:46;97587.09;;;16.59;24.55
53916;BME280;39827;49.652;18.770;2023-02-28T10:19:42;97578.53;;;15.94;23.26
53916;BME280;39827;49.652;18.770;2023-02-28T10:22:14;97578.63;;;17.33;23.41
53916;BME280;39827;49.652;18.770;2023-02-28T10:24:45;97576.41;;;16.59;24.18
53916;BME280;39827;49.652;18.770;2023-02-28T10:27:22;97579.53;;;16.92;24.47
53916;BME280;39827;49.652;18.770;2023-02-28T10:29:50;97576.41;;;17.45;23.58
53916;BME280;39827;49.652;18.770;2023-02-28T10:32:25;97578.81;;;17.47;22.89
53916;BME280;39827;49.652;18.770;2023-02-28T10:37:38;97558.50;;;16.28;23.87
53916;BME280;39827;49.652;18.770;2023-02-28T10:40:06;97569.31;;;15.43;24.92
53916;BME280;39827;49.652;18.770;2023-02-28T10:42:32;97559.28;;;16.39;23.27
53916;BME280;39827;49.652;18.770;2023-02-28T10:45:17;97538.41;;;15.63;24.46
53916;BME280;39827;49.652;18.770;2023-02-28T10:48:03;97550.44;;;16.59;24.26
53916;BME280;39827;49.652;18.770;2023-02-28T10:50:45;97539.00;;;16.38;23.23
53916;BME280;39827;49.652;18.770;2023-02-28T11:01:39;97538.88;;;15.39;24.77
53916;BME280;39827;49.652;18.770;2023-02-28T11:07:00;97525.00;;;15.47;23.01
53916;BME280;39827;49.652;18.770;2023-02-28T11:09:46;97528.16;;;13.94;23.80
53916;BME280;39827;49.652;18.770;2023-02-28T11:12:21;97525.16;;;13.58;27.30
53916;BME280;39827;49.652;18.770;2023-02-28T11:14:57;97517.69;;;14.20;27.20
53916;BME280;39827;49.652;18.770;2023-02-28T11:17:26;97511.09;;;14.71;26.12
53916;BME280;39827;49.652;18.770;2023-02-28T11:19:58;97512.53;;;15.74;24.81
53916;BME280;39827;49.652;18.770;2023-02-28T11:22:31;97510.28;;;15.24;25.10
53916;BME280;39827;49.652;18.770;2023-02-28T11:25:06;97512.13;;;15.18;23.58
53916;BME280;39827;49.652;18.770;2023-02-28T11:29:59;97516.19;;;15.47;23.37
53916;BME280;39827;49.652;18.770;2023-02-28T11:32:27;97511.25;;;15.02;25.03
53916;BME280;39827;49.652;18.770;2023-02-28T11:37:30;97505.38;;;14.46;29.11
53916;BME280;39827;49.652;18.770;2023-02-28T11:39:56;97507.97;;;14.36;30.78
53916;BME280;39827;49.652;18.770;2023-02-28T11:44:54;97506.91;;;13.44;30.53
53916;BME280;39827;49.652;18.770;2023-02-28T11:50:32;97499.13;;;13.60;30.30
53916;BME280;39827;49.652;18.770;2023-02-28T11:53:44;97489.59;;;12.69;31.15
53916;BME280;39827;49.652;18.770;2023-02-28T11:56:23;97507.72;;;13.72;31.22
53916;BME280;39827;49.652;18.770;2023-02-28T12:01:31;97499.75;;;13.72;31.94
53916;BME280;39827;49.652;18.770;2023-02-28T12:07:00;97506.28;;;14.25;29.44
53916;BME280;39827;49.652;18.770;2023-02-28T12:09:51;97487.88;;;14.18;30.26
53916;BME280;39827;49.652;18.770;2023-02-28T12:21:01;97486.06;;;14.24;30.76
53916;BME280;39827;49.652;18.770;2023-02-28T12:23:56;97487.56;;;14.57;31.81
53916;BME280;39827;49.652;18.770;2023-02-28T12:26:36;97496.34;;;14.53;29.52
53916;BME280;39827;49.652;18.770;2023-02-28T12:29:15;97492.41;;;14.61;29.06
53916;BME280;39827;49.652;18.770;2023-02-28T12:31:48;97495.06;;;14.61;29.08
53916;BME280;39827;49.652;18.770;2023-02-28T12:34:28;97480.28;;;14.42;30.59
53916;BME280;39827;49.652;18.770;2023-02-28T12:36:58;97493.66;;;14.53;31.75
53916;BME280;39827;49.652;18.770;2023-02-28T12:39:35;97491.06;;;14.58;32.00
53916;BME280;39827;49.652;18.770;2023-02-28T12:42:10;97488.81;;;14.82;29.60
53916;BME280;39827;49.652;18.770;2023-02-28T12:45:40;97474.47;;;14.45;30.00
53916;BME280;39827;49.652;18.770;2023-02-28T12:47:42;97480.94;;;14.17;31.92
53916;BME280;39827;49.652;18.770;2023-02-28T12:50:10;97468.88;;;14.09;31.05
53916;BME280;39827;49.652;18.770;2023-02-28T12:55:18;97473.47;;;14.14;32.14
53916;BME280;39827;49.652;18.770;2023-02-28T12:58:13;97467.28;;;13.70;31.99
53916;BME280;39827;49.652;18.770;2023-02-28T13:03:55;97471.75;;;13.97;32.18
53916;BME280;39827;49.652;18.770;2023-02-28T13:09:27;97471.78;;;13.42;33.11
53916;BME280;39827;49.652;18.770;2023-02-28T13:11:55;97461.75;;;13.49;33.86
53916;BME280;39827;49.652;18.770;2023-02-28T13:22:03;97465.94;;;13.45;34.73
53916;BME280;39827;49.652;18.770;2023-02-28T13:29:35;97457.81;;;13.02;35.83
53916;BME280;39827;49.652;18.770;2023-02-28T13:34:34;97465.47;;;12.14;36.62
53916;BME280;39827;49.652;18.770;2023-02-28T13:37:36;97454.66;;;12.21;36.94
53916;BME280;39827;49.652;18.770;2023-02-28T13:59:05;97446.00;;;9.86;42.23
53916;BME280;39827;49.652;18.770;2023-02-28T14:07:17;97434.00;;;9.47;43.52
53916;BME280;39827;49.652;18.770;2023-02-28T14:09:50;97434.44;;;9.13;41.35
53916;BME280;39827;49.652;18.770;2023-02-28T14:12:51;97435.94;;;8.79;42.20
53916;BME280;39827;49.652;18.770;2023-02-28T14:17:53;97440.41;;;8.15;44.81
53916;BME280;39827;49.652;18.770;2023-02-28T14:20:21;97440.94;;;7.80;46.48
53916;BME280;39827;49.652;18.770;2023-02-28T14:22:57;97440.97;;;7.48;46.50
53916;BME280;39827;49.652;18.770;2023-02-28T14:25:32;97445.47;;;7.40;45.90
53916;BME280;39827;49.652;18.770;2023-02-28T14:28:17;97435.22;;;6.93;46.87
53916;BME280;39827;49.652;18.770;2023-02-28T14:31:01;97433.28;;;6.68;48.99
53916;BME280;39827;49.652;18.770;2023-02-28T14:38:29;97435.84;;;5.89;49.19
53916;BME280;39827;49.652;18.770;2023-02-28T14:40:57;97439.50;;;5.60;50.20
53916;BME280;39827;49.652;18.770;2023-02-28T14:43:26;97430.00;;;5.46;51.79
53916;BME280;39827;49.652;18.770;2023-02-28T14:45:58;97425.72;;;5.18;52.29
53916;BME280;39827;49.652;18.770;2023-02-28T14:48:25;97442.09;;;5.20;52.10
53916;BME280;39827;49.652;18.770;2023-02-28T14:50:55;97435.78;;;5.07;52.25
53916;BME280;39827;49.652;18.770;2023-02-28T14:53:24;97430.84;;;4.77;53.38
53916;BME280;39827;49.652;18.770;2023-02-28T14:55:51;97439.50;;;4.78;53.93
53916;BME280;39827;49.652;18.770;2023-02-28T14:58:32;97439.09;;;4.74;54.86
53916;BME280;39827;49.652;18.770;2023-02-28T15:01:00;97412.19;;;4.52;56.23
53916;BME280;39827;49.652;18.770;2023-02-28T15:05:59;97440.78;;;4.47;54.99
53916;BME280;39827;49.652;18.770;2023-02-28T15:08:25;97430.50;;;4.45;55.67
53916;BME280;39827;49.652;18.770;2023-02-28T15:10:57;97448.50;;;4.20;56.34
53916;BME280;39827;49.652;18.770;2023-02-28T15:13:38;97437.72;;;4.01;57.01
53916;BME280;39827;49.652;18.770;2023-02-28T15:16:11;97453.16;;;4.17;58.08
53916;BME280;39827;49.652;18.770;2023-02-28T15:21:18;97446.34;;;3.73;55.02
53916;BME280;39827;49.652;18.770;2023-02-28T15:23:56;97432.84;;;3.69;56.63
53916;BME280;39827;49.652;18.770;2023-02-28T15:26:27;97445.13;;;3.69;57.64
53916;BME280;39827;49.652;18.770;2023-02-28T15:28:59;97449.06;;;3.58;57.47
53916;BME280;39827;49.652;18.770;2023-02-28T15:31:31;97439.72;;;3.48;57.91